This is the latest recevied weather packets stored in our database for station/object KE8RXN. If no packets are shown the sender has not sent any weather packets the latest 10 day(s).
| Time | Temp. | Humidity | Pressure | Rain* | Wind** | Luminosity | Snow |
|---|---|---|---|---|---|---|---|
| 1778089959 | 11.11° C | 42% | 1016.7 hPa | 0 mm | - | 844 W/m² | - |
| 1778089657 | 11.67° C | 39% | 1016.6 hPa | 0 mm | - | 164 W/m² | - |
| 1778089354 | 12.22° C | 38% | 1016.6 hPa | 0 mm | - | 836 W/m² | - |
| 1778089052 | 11.67° C | 39% | 1016.7 hPa | 0 mm | - | 787 W/m² | - |
| 1778088748 | 11.11° C | 40% | 1016.6 hPa | 0 mm | - | 362 W/m² | - |
| 1778088445 | 11.67° C | 41% | 1016.8 hPa | 0 mm | - | 221 W/m² | - |
| 1778088142 | 11.11° C | 40% | 1016.8 hPa | 0 mm | - | 283 W/m² | - |
| 1778087839 | 11.67° C | 40% | 1016.8 hPa | 0 mm | - | 260 W/m² | - |
| 1778087537 | 11.67° C | 41% | 1016.8 hPa | 0 mm | - | 376 W/m² | - |
| 1778087234 | 11.11° C | 41% | 1017.1 hPa | 0 mm | - | 219 W/m² | - |
| 1778086930 | 11.11° C | 40% | 1016.9 hPa | 0 mm | - | 326 W/m² | - |
| 1778086629 | 10.56° C | 42% | 1016.9 hPa | 0 mm | - | 213 W/m² | - |
| 1778086325 | 10.56° C | 42% | 1016.9 hPa | 0 mm | - | 184 W/m² | - |
| 1778086023 | 11.11° C | 42% | 1017 hPa | 0 mm | - | 251 W/m² | - |
| 1778085720 | 11.67° C | 43% | 1016.9 hPa | 0 mm | - | 284 W/m² | - |
| 1778085416 | 11.67° C | 43% | 1017 hPa | 0 mm | - | 276 W/m² | - |
| 1778085111 | 11.67° C | 44% | 1016.9 hPa | 0 mm | - | 227 W/m² | - |
| 1778084807 | 11.67° C | 41% | 1016.8 hPa | 0 mm | - | 282 W/m² | - |
| 1778084505 | 11.11° C | 43% | 1017.1 hPa | 0 mm | - | 574 W/m² | - |
| 1778084202 | 10.56° C | 44% | 1016.9 hPa | 0 mm | - | 404 W/m² | - |
| 1778083899 | 10.56° C | 45% | 1017.1 hPa | 0 mm | - | 236 W/m² | - |
| 1778083597 | 10.56° C | 45% | 1017 hPa | 0 mm | - | 191 W/m² | - |
| 1778083293 | 11.67° C | 42% | 1017 hPa | 0 mm | - | 166 W/m² | - |
| 1778082991 | 12.78° C | 40% | 1017.1 hPa | 0 mm | - | 348 W/m² | - |
| 1778082688 | 11.11° C | 43% | 1017.1 hPa | 0 mm | - | 342 W/m² | - |
* Rain latest hour (hover to see other rain measurements)
** Current wind speed in m/s (hover to see current wind gust speed)